Latest Weather Observations for Oakey

IDQ60901

Issued at 11:15 pm EST Saturday 1 November 2014 (issued every 10 minutes, with the page automatically refreshed every 10 minutes)

About weather observations | Map of Brisbane area stations | Latest observations for Brisbane area | Other Formats
Station Details ID: 041359 Name: OAKEY AERO Lat: -27.40 Lon: 151.74 Height: 405.69 m
Data from the previous 72 hours. | See also: Recent months at Oakey
Date/Time
EST
Tmp

°C
App
Tmp
°C
Dew
Point
°C
Rel
Hum
%
Delta-T

°C
Wind Press
QNH
hPa
Press
MSL
hPa
Rain
since
9 am
mm
Dir
 
Spd
km/h
Gust
km/h
Spd
kts
Gust
kts
01/11:00pm 19.8 17.9 16.8 83 1.8 SSW 22 35 12 19 1014.7 - 0.8
01/10:30pm 20.8 18.5 16.6 77 2.6 WSW 24 32 13 17 1015.8 - 0.0
01/10:00pm 22.7 15.9 14.8 61 4.8 SW 44 59 24 32 1014.9 - 0.0
01/09:42pm 25.8 17.9 12.6 44 7.8 SW 46 67 25 36 1014.2 - 0.0
01/09:41pm 26.0 18.0 12.5 43 7.9 SW 46 57 25 31 1014.1 - 0.0
01/09:35pm 26.9 20.9 13.3 43 8.1 W 37 57 20 31 1014.3 - 0.0
01/09:30pm 26.5 24.3 14.9 49 7.1 N 20 28 11 15 1012.8 - 0.0
01/09:00pm 26.8 23.2 14.2 46 7.7 N 26 37 14 20 1011.5 1009.8 0.0
01/08:53pm 26.8 22.6 13.5 44 8.0 N 28 37 15 20 1011.4 - 0.0
01/08:30pm 24.9 23.2 11.1 42 7.9 N 11 13 6 7 1010.8 - 0.0
01/08:00pm 25.5 24.5 10.9 40 8.3 N 7 9 4 5 1010.5 - 0.0
01/07:30pm 25.2 23.3 11.7 43 7.8 N 13 15 7 8 1010.0 - 0.0
01/07:00pm 26.9 24.0 11.0 37 9.2 N 17 19 9 10 1009.4 - 0.0
01/06:30pm 29.0 25.6 10.6 32 10.6 N 19 24 10 13 1009.2 - 0.0
01/06:00pm 30.6 26.9 10.0 28 11.9 NNW 20 30 11 16 1009.3 1007.6 0.0
01/05:30pm 32.0 27.0 9.5 25 13.0 NNW 26 35 14 19 1009.1 - 0.0
01/05:00pm 32.9 27.0 9.0 23 13.7 NNW 30 41 16 22 1009.1 - 0.0
01/04:30pm 33.3 27.5 9.4 23 13.8 NNW 30 39 16 21 1008.9 - 0.0
01/04:00pm 34.0 28.7 9.9 23 14.1 NW 28 43 15 23 1009.0 - 0.0
01/03:32pm 33.9 28.4 9.2 22 14.3 NNW 28 48 15 26 1009.2 - 0.0
01/03:30pm 34.3 28.9 9.5 22 14.4 NNW 28 39 15 21 1009.2 - 0.0
01/03:17pm 34.7 28.6 9.9 22 14.5 NNW 32 50 17 27 1009.1 - 0.0
01/03:00pm 33.8 27.4 8.4 21 14.5 NNW 32 44 17 24 1009.4 1007.7 0.0
01/02:30pm 34.3 28.4 7.4 19 15.2 NNW 28 33 15 18 1009.7 - 0.0
01/02:00pm 33.7 28.0 6.9 19 14.9 N 26 43 14 23 1010.2 - 0.0
01/01:30pm 33.4 26.9 8.1 21 14.4 N 32 50 17 27 1010.8 - 0.0
01/01:00pm 33.2 28.1 10.5 25 13.3 N 28 41 15 22 1011.3 - 0.0
01/12:30pm 31.7 26.0 9.8 26 12.7 N 30 43 16 23 1011.7 - 0.0
01/12:14pm 31.7 26.0 9.8 26 12.7 N 30 43 16 23 1012.4 - 0.0
01/12:00pm 31.1 27.6 11.0 29 11.8 NNW 20 24 11 13 1012.9 1011.2 0.0
01/11:30am 30.2 25.9 12.1 32 10.8 N 26 43 14 23 1013.5 - 0.0
01/11:00am 29.5 25.9 12.9 36 10.0 NNE 24 32 13 17 1014.2 - 0.0
01/10:30am 26.7 22.9 12.4 41 8.4 NNE 24 32 13 17 1014.6 - 0.0
01/10:00am 24.7 22.0 14.5 53 6.2 NNE 22 32 12 17 1015.1 - 0.0
01/09:30am 23.1 20.6 15.2 61 4.8 NE 22 32 12 17 1015.5 - 0.0
01/09:17am 22.6 20.1 15.2 63 4.5 NE 22 30 12 16 1015.2 - 0.0
01/09:00am 22.3 21.8 14.9 63 4.5 N 11 17 6 9 1017.3 1015.6 4.4
01/08:30am 21.9 21.3 14.5 63 4.4 W 11 17 6 9 1017.8 - 4.4
01/08:00am 21.5 18.9 14.9 66 4.0 WSW 22 26 12 14 1018.7 - 4.4
01/07:30am 20.8 18.8 15.4 71 3.3 W 20 24 11 13 1018.7 - 4.4
01/07:17am 20.5 18.5 15.5 73 3.0 W 20 24 11 13 1018.5 - 4.4
01/07:00am 20.2 19.9 15.4 74 2.9 N 11 15 6 8 1016.2 - 4.4
01/06:30am 19.4 14.6 15.5 78 2.3 NE 35 43 19 23 1014.5 - 4.4
01/06:00am 19.1 17.2 15.8 81 2.0 NE 20 26 11 14 1014.7 1013.0 4.4
01/05:30am 18.5 17.2 15.7 84 1.7 NE 17 19 9 10 1015.0 - 4.4
01/05:00am 17.6 17.8 15.8 89 1.1 NE 9 11 5 6 1015.3 - 4.4
01/04:30am 17.4 17.9 14.9 85 1.5 WSW 6 9 3 5 1015.9 - 4.4
01/04:00am 17.8 18.1 15.1 84 1.6 S 7 9 4 5 1015.4 - 4.4
01/03:30am 18.4 18.0 15.1 81 2.0 NE 11 15 6 8 1015.0 - 4.4
01/03:00am 19.6 18.5 15.3 76 2.6 NE 15 20 8 11 1014.8 1013.1 4.4
01/02:30am 19.8 17.8 15.0 74 2.9 NE 19 24 10 13 1014.1 - 4.4
01/02:00am 20.1 19.0 15.3 74 2.9 NE 15 20 8 11 1014.2 - 4.4
01/01:30am 20.0 19.5 15.8 77 2.5 NE 13 17 7 9 1014.6 - 4.4
01/01:00am 20.4 21.3 15.0 71 3.2 NNE 4 9 2 5 1015.2 - 4.4
01/12:30am 20.9 19.3 15.0 69 3.5 NE 17 22 9 12 1014.8 - 4.4
01/12:00am 21.4 19.8 15.0 67 3.8 NE 17 24 9 13 1015.2 1013.5 4.4
 
Date/Time
EST
Tmp

°C
App
Tmp
°C
Dew
Point
°C
Rel
Hum
%
Delta-T

°C
Wind Press
QNH
hPa
Press
MSL
hPa
Rain
since
9 am
mm
Dir
 
Spd
km/h
Gust
km/h
Spd
kts
Gust
kts
31/11:30pm 21.9 19.5 15.3 66 4.0 NE 22 30 12 16 1015.5 - 4.4
31/11:00pm 22.1 21.3 16.1 69 3.7 NE 15 22 8 12 1015.4 - 4.4
31/10:30pm 22.9 21.2 16.2 66 4.1 NNE 20 26 11 14 1015.9 - 4.4
31/10:00pm 23.2 22.8 17.2 69 3.8 NE 15 20 8 11 1015.5 - 4.4
31/09:30pm 24.1 22.7 16.9 64 4.5 NE 20 30 11 16 1015.4 - 4.4
31/09:00pm 23.9 22.6 17.2 66 4.2 NE 20 28 11 15 1015.0 1013.7 4.4
31/08:30pm 24.8 22.8 17.5 64 4.6 NE 24 33 13 18 1014.9 - 4.4
31/08:00pm 25.1 22.7 17.3 62 4.9 NE 26 39 14 21 1014.5 - 4.4
31/07:30pm 25.6 23.7 16.7 58 5.6 NE 22 32 12 17 1014.1 - 4.4
31/07:00pm 25.3 23.5 15.6 55 6.0 NE 19 22 10 12 1013.7 - 4.4
31/06:30pm 24.7 23.3 15.6 57 5.6 NE 17 22 9 12 1013.1 - 4.4
31/06:00pm 25.6 22.9 14.7 51 6.6 N 22 28 12 15 1012.9 1011.6 4.4
31/05:30pm 25.5 22.6 16.1 56 5.8 NE 26 32 14 17 1012.5 - 4.4
31/05:00pm 25.4 21.8 17.1 60 5.2 NE 32 41 17 22 1012.4 - 4.4
31/04:46pm 26.2 21.7 15.3 51 6.7 NE 33 50 18 27 1012.1 - 4.4
31/04:30pm 23.8 17.5 13.6 52 6.1 NE 39 72 21 39 1012.0 - 4.2
31/04:27pm 22.4 17.7 14.3 60 4.8 NE 32 52 17 28 1011.8 - 3.8
31/04:26pm 23.5 20.4 14.5 57 5.4 E 24 41 13 22 1012.0 - 3.4
31/04:24pm 23.7 15.2 13.3 52 6.1 NNE 50 76 27 41 1012.2 - 2.0
31/04:21pm 25.7 16.6 12.5 44 7.8 NNE 52 76 28 41 1012.1 - 0.0
31/04:14pm 26.9 22.5 14.0 45 7.8 NNE 30 54 16 29 1012.1 - 0.0
31/04:00pm 28.6 23.8 11.6 34 10.0 NE 28 35 15 19 1011.9 - 0.0
31/03:59pm 28.3 23.5 11.8 36 9.7 NE 28 35 15 19 1011.9 - 0.0
31/03:58pm 27.7 19.0 11.3 36 9.5 N 48 67 26 36 1012.0 - 0.0
31/03:53pm 27.0 16.5 11.1 37 9.2 N 57 67 31 36 1011.9 - 0.0
31/03:51pm 29.6 23.1 11.6 33 10.6 N 37 56 20 30 1011.9 - 0.0
31/03:30pm 32.2 27.5 9.1 24 13.2 NE 24 35 13 19 1011.9 - 0.0
31/03:00pm 32.8 29.3 8.9 23 13.7 NE 17 30 9 16 1012.0 1010.7 0.0
31/02:30pm 32.7 29.1 8.2 22 13.9 NE 17 24 9 13 1012.3 - 0.0
31/02:00pm 33.0 29.0 9.1 23 13.7 NNE 20 35 11 19 1012.8 - 0.0
31/01:30pm 32.6 29.1 8.8 23 13.6 NE 17 32 9 17 1013.2 - 0.0
31/01:00pm 32.0 28.7 9.5 25 13.0 NE 17 37 9 20 1013.7 - 0.0
31/12:30pm 33.5 31.3 9.5 23 13.9 ENE 11 26 6 14 1014.3 - 0.0
31/12:00pm 31.8 30.0 11.0 28 12.2 NE 11 20 6 11 1014.8 1013.5 0.0
31/11:30am 31.3 29.1 12.2 31 11.4 N 15 30 8 16 1015.4 - 0.0
31/11:00am 30.6 29.1 12.0 32 11.1 NE 11 24 6 13 1016.2 - 0.0
31/10:30am 30.3 29.2 13.1 34 10.4 NE 11 20 6 11 1016.7 - 0.0
31/10:00am 29.4 27.8 12.8 36 10.0 ENE 13 22 7 12 1017.1 - 0.0
31/09:30am 27.7 26.1 12.9 40 8.8 NE 13 22 7 12 1017.4 - 0.0
31/09:00am 27.1 24.8 13.1 42 8.3 NNE 17 26 9 14 1017.4 1016.1 0.0
31/08:30am 26.1 24.4 13.6 46 7.5 NE 15 20 8 11 1017.4 - 0.0
31/08:00am 24.3 23.1 14.1 53 6.1 NE 13 20 7 11 1017.6 - 0.0
31/07:30am 23.2 22.6 14.7 58 5.1 NNE 11 19 6 10 1018.0 - 0.0
31/07:00am 22.9 22.1 16.0 65 4.2 NE 15 19 8 10 1017.9 - 0.0
31/06:30am 21.9 21.6 16.4 71 3.4 NE 13 17 7 9 1017.8 - 0.0
31/06:00am 21.1 20.9 16.7 76 2.7 NE 13 17 7 9 1017.7 1016.4 0.0
31/05:30am 20.7 20.5 16.7 78 2.5 NE 13 19 7 10 1017.4 - 0.0
31/05:00am 20.4 20.5 16.6 79 2.3 NE 11 13 6 7 1016.9 - 0.0
31/04:30am 20.2 19.6 16.6 80 2.2 NE 15 20 8 11 1016.6 - 0.0
31/04:00am 20.4 19.5 16.8 80 2.2 NE 17 20 9 11 1016.2 - 0.0
31/03:30am 20.3 19.0 16.9 81 2.1 NE 19 24 10 13 1015.9 - 0.0
31/03:00am 19.9 18.6 16.9 83 1.9 NE 19 24 10 13 1015.5 1014.2 0.0
31/02:58am 20.0 18.8 17.0 83 1.9 NE 19 24 10 13 1015.5 - 0.0
31/02:30am 19.7 18.8 16.9 84 1.7 NE 17 22 9 12 1015.3 - 0.0
31/02:00am 19.7 18.7 16.7 83 1.8 NE 17 22 9 12 1015.3 - 0.0
31/01:30am 19.9 19.0 16.9 83 1.9 NE 17 20 9 11 1015.5 - 0.0
31/01:00am 20.0 19.5 16.8 82 2.0 NE 15 19 8 10 1015.9 - 0.0
31/12:30am 20.2 19.6 16.6 80 2.2 ENE 15 19 8 10 1016.3 - 0.0
31/12:00am 20.6 19.7 16.8 79 2.3 ENE 17 20 9 11 1016.6 1015.3 0.0
 
Date/Time
EST
Tmp

°C
App
Tmp
°C
Dew
Point
°C
Rel
Hum
%
Delta-T

°C
Wind Press
QNH
hPa
Press
MSL
hPa
Rain
since
9 am
mm
Dir
 
Spd
km/h
Gust
km/h
Spd
kts
Gust
kts
30/11:30pm 20.9 20.7 16.7 77 2.6 NE 13 17 7 9 1016.8 - 0.0
30/11:00pm 21.0 20.4 16.6 76 2.7 NE 15 20 8 11 1016.7 - 0.0
30/10:30pm 21.4 19.8 16.6 74 3.0 NE 20 26 11 14 1016.9 - 0.0
30/10:00pm 21.7 19.7 16.4 72 3.3 NE 22 26 12 14 1016.8 - 0.0
30/09:30pm 22.2 20.6 16.5 70 3.5 NE 20 28 11 15 1016.7 - 0.0
30/09:00pm 22.7 20.0 16.5 68 3.8 NE 26 32 14 17 1016.1 1014.8 0.0
30/08:30pm 23.4 20.2 16.4 64 4.3 NE 28 35 15 19 1015.8 - 0.0
30/08:00pm 24.1 20.4 15.9 60 5.1 NE 30 37 16 20 1015.2 - 0.0
30/07:30pm 25.0 21.3 15.9 57 5.6 NE 30 43 16 23 1014.7 - 0.0
30/07:00pm 26.2 23.0 15.3 51 6.7 NE 26 35 14 19 1014.2 - 0.0
30/06:30pm 27.5 23.5 14.2 44 8.1 NE 28 39 15 21 1013.6 - 0.0
30/06:00pm 29.2 27.5 9.8 30 11.1 ENE 9 19 5 10 1013.1 1011.7 0.0
30/05:30pm 31.5 29.3 5.1 19 14.1 N 6 9 3 5 1012.7 - 0.0
30/05:00pm 32.0 29.1 4.7 18 14.6 NW 9 13 5 7 1012.7 - 0.0
30/04:30pm 31.9 29.8 3.8 17 14.8 NNE 4 9 2 5 1012.6 - 0.0
30/04:00pm 33.0 29.6 3.9 16 15.4 WNW 11 19 6 10 1012.6 - 0.0
30/03:30pm 33.7 29.4 3.5 15 15.9 NW 15 24 8 13 1012.7 - 0.0
30/03:00pm 33.0 30.1 4.7 17 15.2 N 9 13 5 7 1012.8 1011.5 0.0
30/02:30pm 33.5 28.6 5.1 17 15.4 W 20 28 11 15 1013.1 - 0.0
30/02:00pm 32.1 28.4 6.3 20 14.1 WSW 15 24 8 13 1013.5 - 0.0
30/01:30pm 32.0 29.4 7.6 22 13.6 WNW 11 24 6 13 1014.1 - 0.0
30/01:00pm 31.7 28.9 8.7 24 13.1 WNW 13 22 7 12 1014.6 - 0.0
30/12:30pm 31.2 27.9 9.4 26 12.5 NNW 17 22 9 12 1015.0 - 0.0
30/12:00pm 30.6 29.5 10.5 29 11.7 NNW 7 13 4 7 1015.8 1014.4 0.0
30/11:30am 29.6 27.5 11.2 32 10.8 NNW 13 24 7 13 1016.4 - 0.0
30/11:00am 28.1 27.4 12.0 36 9.5 NNW 7 13 4 7 1017.0 - 0.0
30/10:30am 27.6 26.6 12.4 39 9.0 E 9 17 5 9 1017.6 - 0.0
30/10:00am 27.3 25.9 13.3 42 8.4 ENE 13 24 7 13 1017.8 - 0.0
30/09:30am 26.5 25.4 14.3 47 7.4 NE 13 20 7 11 1018.3 - 0.0
30/09:00am 24.7 22.0 13.6 50 6.6 NE 20 28 11 15 1018.6 1017.3 0.0
30/08:30am 23.8 21.2 13.9 54 5.9 NE 20 30 11 16 1018.7 - 0.0
30/08:00am 23.3 20.5 14.3 57 5.4 NE 22 28 12 15 1018.9 - 0.0
30/07:30am 21.8 18.5 13.9 61 4.7 NE 24 32 13 17 1019.1 - 0.0
30/07:00am 20.6 17.7 14.0 66 3.9 NE 22 28 12 15 1018.9 - 0.0
30/06:30am 19.2 16.4 14.2 73 2.9 NE 22 28 12 15 1018.8 - 0.0
30/06:00am 17.9 16.4 14.2 79 2.2 NE 15 20 8 11 1018.4 1017.1 0.0
30/05:30am 16.3 15.1 14.0 86 1.3 NE 13 17 7 9 1017.9 - 0.0
30/05:00am 15.9 14.2 13.7 87 1.3 NE 15 17 8 9 1017.5 - 0.0
30/04:30am 16.3 14.7 14.0 86 1.3 NE 15 17 8 9 1017.2 - 0.0
30/04:00am 16.6 14.3 14.1 85 1.4 NE 19 22 10 12 1017.0 - 0.0
30/03:30am 16.9 14.4 14.2 84 1.6 ENE 20 26 11 14 1016.8 - 0.0
30/03:00am 17.0 14.7 14.1 83 1.7 NE 19 24 10 13 1016.9 1015.6 0.0
30/02:30am 17.1 14.8 14.0 82 1.8 ENE 19 24 10 13 1016.9 - 0.0
30/02:00am 17.5 15.0 14.0 80 2.0 ENE 20 28 11 15 1017.0 - 0.0
30/01:30am 17.7 15.1 13.8 78 2.3 ENE 20 26 11 14 1017.0 - 0.0
30/01:00am 17.8 15.4 13.7 77 2.4 NE 19 22 10 12 1017.1 - 0.0
30/12:30am 18.3 15.7 13.8 75 2.6 NE 20 26 11 14 1017.2 - 0.0
30/12:00am 18.5 15.5 13.6 73 2.8 NE 22 28 12 15 1017.5 1016.2 0.0
 
Date/Time
EST
Tmp

°C
App
Tmp
°C
Dew
Point
°C
Rel
Hum
%
Delta-T

°C
Wind Press
QNH
hPa
Press
MSL
hPa
Rain
since
9 am
mm
Dir
 
Spd
km/h
Gust
km/h
Spd
kts
Gust
kts
29/11:30pm 19.2 15.5 14.0 72 3.0 NE 26 35 14 19 1017.7 - 0.0

Latest Capital City Observations: Canberra | Sydney | Melbourne | Brisbane | Adelaide | Perth | Hobart | Darwin

Other Formats:

Comma delimited format used in spreadsheet applications
http://www.bom.gov.au/fwo/IDQ60901/IDQ60901.94552.axf

JavaScript Object Notation format (JSON) in row-major order
http://www.bom.gov.au/fwo/IDQ60901/IDQ60901.94552.json